sensor_id;sensor_type;location;lat;lon;timestamp;temperature;humidity
13093;DHT22;6612;49.568;11.000;2023-05-07T00:01:37;18.20;51.50
13093;DHT22;6612;49.568;11.000;2023-05-07T00:04:04;18.20;51.60
13093;DHT22;6612;49.568;11.000;2023-05-07T00:06:33;18.30;51.60
13093;DHT22;6612;49.568;11.000;2023-05-07T00:09:00;18.20;51.40
13093;DHT22;6612;49.568;11.000;2023-05-07T00:11:27;18.30;51.40
13093;DHT22;6612;49.568;11.000;2023-05-07T00:13:54;18.30;51.30
13093;DHT22;6612;49.568;11.000;2023-05-07T00:16:21;18.30;51.40
13093;DHT22;6612;49.568;11.000;2023-05-07T00:18:49;18.30;51.50
13093;DHT22;6612;49.568;11.000;2023-05-07T00:21:16;18.30;51.50
13093;DHT22;6612;49.568;11.000;2023-05-07T00:23:43;18.30;51.50
13093;DHT22;6612;49.568;11.000;2023-05-07T00:26:10;18.30;52.30
13093;DHT22;6612;49.568;11.000;2023-05-07T00:28:37;18.40;51.60
13093;DHT22;6612;49.568;11.000;2023-05-07T00:31:05;18.40;51.50
13093;DHT22;6612;49.568;11.000;2023-05-07T00:33:31;18.30;51.40
13093;DHT22;6612;49.568;11.000;2023-05-07T00:36:00;18.40;51.50
13093;DHT22;6612;49.568;11.000;2023-05-07T00:38:27;18.40;51.70
13093;DHT22;6612;49.568;11.000;2023-05-07T00:40:54;18.40;51.70
13093;DHT22;6612;49.568;11.000;2023-05-07T00:43:21;18.40;51.80
13093;DHT22;6612;49.568;11.000;2023-05-07T00:45:48;18.40;51.70
13093;DHT22;6612;49.568;11.000;2023-05-07T00:48:16;18.30;51.50
13093;DHT22;6612;49.568;11.000;2023-05-07T00:50:43;18.30;51.50
13093;DHT22;6612;49.568;11.000;2023-05-07T00:53:12;18.30;51.80
13093;DHT22;6612;49.568;11.000;2023-05-07T00:55:39;18.40;52.00
13093;DHT22;6612;49.568;11.000;2023-05-07T00:58:07;18.40;51.90
13093;DHT22;6612;49.568;11.000;2023-05-07T01:00:34;18.40;51.90
13093;DHT22;6612;49.568;11.000;2023-05-07T01:03:01;18.30;51.70
13093;DHT22;6612;49.568;11.000;2023-05-07T01:05:29;18.30;51.70
13093;DHT22;6612;49.568;11.000;2023-05-07T01:07:57;18.30;51.60
13093;DHT22;6612;49.568;11.000;2023-05-07T01:10:26;18.30;51.50
13093;DHT22;6612;49.568;11.000;2023-05-07T01:12:54;18.30;51.60
13093;DHT22;6612;49.568;11.000;2023-05-07T01:15:21;18.30;51.50
13093;DHT22;6612;49.568;11.000;2023-05-07T01:17:48;18.30;51.50
13093;DHT22;6612;49.568;11.000;2023-05-07T01:20:15;18.20;51.40
13093;DHT22;6612;49.568;11.000;2023-05-07T01:22:43;18.20;51.40
13093;DHT22;6612;49.568;11.000;2023-05-07T01:25:11;18.30;51.50
13093;DHT22;6612;49.568;11.000;2023-05-07T01:27:39;18.20;51.40
13093;DHT22;6612;49.568;11.000;2023-05-07T01:30:07;18.20;51.50
13093;DHT22;6612;49.568;11.000;2023-05-07T01:32:38;18.20;51.60
13093;DHT22;6612;49.568;11.000;2023-05-07T01:35:09;18.20;51.70
13093;DHT22;6612;49.568;11.000;2023-05-07T01:37:37;18.20;51.70
13093;DHT22;6612;49.568;11.000;2023-05-07T01:40:07;18.10;51.50
13093;DHT22;6612;49.568;11.000;2023-05-07T01:42:35;18.10;51.60
13093;DHT22;6612;49.568;11.000;2023-05-07T01:45:02;18.10;51.60
13093;DHT22;6612;49.568;11.000;2023-05-07T01:47:30;18.10;51.50
13093;DHT22;6612;49.568;11.000;2023-05-07T01:49:57;18.10;51.50
13093;DHT22;6612;49.568;11.000;2023-05-07T01:52:24;18.10;51.50
13093;DHT22;6612;49.568;11.000;2023-05-07T01:54:51;18.10;51.60
13093;DHT22;6612;49.568;11.000;2023-05-07T01:57:20;18.10;51.60
13093;DHT22;6612;49.568;11.000;2023-05-07T01:59:47;18.10;51.80
13093;DHT22;6612;49.568;11.000;2023-05-07T02:02:14;18.10;51.80
13093;DHT22;6612;49.568;11.000;2023-05-07T02:04:41;18.10;52.00
13093;DHT22;6612;49.568;11.000;2023-05-07T02:07:08;18.10;51.80
13093;DHT22;6612;49.568;11.000;2023-05-07T02:09:35;18.10;51.70
13093;DHT22;6612;49.568;11.000;2023-05-07T02:12:03;18.10;51.80
13093;DHT22;6612;49.568;11.000;2023-05-07T02:14:31;18.10;51.80
13093;DHT22;6612;49.568;11.000;2023-05-07T02:16:58;18.10;51.80
13093;DHT22;6612;49.568;11.000;2023-05-07T02:19:25;18.10;51.80
13093;DHT22;6612;49.568;11.000;2023-05-07T02:21:52;18.10;51.70
13093;DHT22;6612;49.568;11.000;2023-05-07T02:24:19;18.10;51.60
13093;DHT22;6612;49.568;11.000;2023-05-07T02:26:46;18.10;51.60
13093;DHT22;6612;49.568;11.000;2023-05-07T02:29:13;18.00;51.50
13093;DHT22;6612;49.568;11.000;2023-05-07T02:31:42;18.00;51.50
13093;DHT22;6612;49.568;11.000;2023-05-07T02:34:09;18.10;51.60
13093;DHT22;6612;49.568;11.000;2023-05-07T02:36:36;18.00;51.50
13093;DHT22;6612;49.568;11.000;2023-05-07T02:39:03;18.00;51.40
13093;DHT22;6612;49.568;11.000;2023-05-07T02:41:30;18.00;51.40
13093;DHT22;6612;49.568;11.000;2023-05-07T02:43:57;18.00;51.40
13093;DHT22;6612;49.568;11.000;2023-05-07T02:46:24;18.00;51.40
13093;DHT22;6612;49.568;11.000;2023-05-07T02:48:52;18.00;51.40
13093;DHT22;6612;49.568;11.000;2023-05-07T02:51:21;17.90;51.40
13093;DHT22;6612;49.568;11.000;2023-05-07T02:53:48;17.90;51.40
13093;DHT22;6612;49.568;11.000;2023-05-07T02:56:15;17.90;51.40
13093;DHT22;6612;49.568;11.000;2023-05-07T02:58:42;17.80;51.30
13093;DHT22;6612;49.568;11.000;2023-05-07T03:01:09;17.90;51.50
13093;DHT22;6612;49.568;11.000;2023-05-07T03:03:37;17.80;51.50
13093;DHT22;6612;49.568;11.000;2023-05-07T03:06:05;17.80;51.50
13093;DHT22;6612;49.568;11.000;2023-05-07T03:08:33;17.80;51.60
13093;DHT22;6612;49.568;11.000;2023-05-07T03:11:00;17.70;51.50
13093;DHT22;6612;49.568;11.000;2023-05-07T03:13:27;17.70;51.60
13093;DHT22;6612;49.568;11.000;2023-05-07T03:15:54;17.70;51.70
13093;DHT22;6612;49.568;11.000;2023-05-07T03:18:21;17.60;51.60
13093;DHT22;6612;49.568;11.000;2023-05-07T03:20:48;17.60;51.70
13093;DHT22;6612;49.568;11.000;2023-05-07T03:23:16;17.60;51.80
13093;DHT22;6612;49.568;11.000;2023-05-07T03:25:43;17.50;51.80
13093;DHT22;6612;49.568;11.000;2023-05-07T03:28:10;17.50;51.80
13093;DHT22;6612;49.568;11.000;2023-05-07T03:30:37;17.40;51.90
13093;DHT22;6612;49.568;11.000;2023-05-07T03:33:04;17.40;51.90
13093;DHT22;6612;49.568;11.000;2023-05-07T03:35:31;17.40;52.00
13093;DHT22;6612;49.568;11.000;2023-05-07T03:37:58;17.30;52.10
13093;DHT22;6612;49.568;11.000;2023-05-07T03:40:27;17.30;52.20
13093;DHT22;6612;49.568;11.000;2023-05-07T03:42:54;17.30;52.30
13093;DHT22;6612;49.568;11.000;2023-05-07T03:45:21;17.20;52.30
13093;DHT22;6612;49.568;11.000;2023-05-07T03:47:48;17.20;52.40
13093;DHT22;6612;49.568;11.000;2023-05-07T03:50:15;17.10;52.40
13093;DHT22;6612;49.568;11.000;2023-05-07T03:52:42;17.10;52.50
13093;DHT22;6612;49.568;11.000;2023-05-07T03:55:09;17.10;52.60
13093;DHT22;6612;49.568;11.000;2023-05-07T03:57:38;17.10;52.70
13093;DHT22;6612;49.568;11.000;2023-05-07T04:00:06;17.00;52.70
13093;DHT22;6612;49.568;11.000;2023-05-07T04:02:33;17.00;52.80
13093;DHT22;6612;49.568;11.000;2023-05-07T04:05:00;17.00;52.90
13093;DHT22;6612;49.568;11.000;2023-05-07T04:07:27;17.00;53.10
13093;DHT22;6612;49.568;11.000;2023-05-07T04:09:54;16.90;53.10
13093;DHT22;6612;49.568;11.000;2023-05-07T04:12:21;16.90;53.30
13093;DHT22;6612;49.568;11.000;2023-05-07T04:14:50;16.90;53.40
13093;DHT22;6612;49.568;11.000;2023-05-07T04:17:16;16.90;53.60
13093;DHT22;6612;49.568;11.000;2023-05-07T04:19:43;16.90;53.60
13093;DHT22;6612;49.568;11.000;2023-05-07T04:22:11;16.90;53.70
13093;DHT22;6612;49.568;11.000;2023-05-07T04:24:38;16.90;53.90
13093;DHT22;6612;49.568;11.000;2023-05-07T04:27:05;17.00;54.00
13093;DHT22;6612;49.568;11.000;2023-05-07T04:29:32;17.00;54.20
13093;DHT22;6612;49.568;11.000;2023-05-07T04:32:00;17.00;54.30
13093;DHT22;6612;49.568;11.000;2023-05-07T04:34:27;17.10;54.60
13093;DHT22;6612;49.568;11.000;2023-05-07T04:36:58;17.10;54.60
13093;DHT22;6612;49.568;11.000;2023-05-07T04:39:25;17.20;54.70
13093;DHT22;6612;49.568;11.000;2023-05-07T04:41:52;17.30;54.60
13093;DHT22;6612;49.568;11.000;2023-05-07T04:44:19;17.30;54.70
13093;DHT22;6612;49.568;11.000;2023-05-07T04:46:46;17.40;55.00
13093;DHT22;6612;49.568;11.000;2023-05-07T04:49:14;17.50;55.30
13093;DHT22;6612;49.568;11.000;2023-05-07T04:51:41;17.60;55.60
13093;DHT22;6612;49.568;11.000;2023-05-07T04:54:08;17.70;55.90
13093;DHT22;6612;49.568;11.000;2023-05-07T04:56:36;17.90;56.10
13093;DHT22;6612;49.568;11.000;2023-05-07T04:59:03;18.10;56.20
13093;DHT22;6612;49.568;11.000;2023-05-07T05:01:30;18.40;56.50
13093;DHT22;6612;49.568;11.000;2023-05-07T05:03:57;18.60;56.20
13093;DHT22;6612;49.568;11.000;2023-05-07T05:06:27;18.90;56.00
13093;DHT22;6612;49.568;11.000;2023-05-07T05:08:53;19.20;55.90
13093;DHT22;6612;49.568;11.000;2023-05-07T05:11:21;19.50;55.50
13093;DHT22;6612;49.568;11.000;2023-05-07T05:13:48;19.80;55.00
13093;DHT22;6612;49.568;11.000;2023-05-07T05:16:15;20.10;54.50
13093;DHT22;6612;49.568;11.000;2023-05-07T05:18:42;20.30;53.80
13093;DHT22;6612;49.568;11.000;2023-05-07T05:21:09;20.40;52.80
13093;DHT22;6612;49.568;11.000;2023-05-07T05:23:37;20.50;52.30
13093;DHT22;6612;49.568;11.000;2023-05-07T05:26:04;20.50;52.00
13093;DHT22;6612;49.568;11.000;2023-05-07T05:28:31;20.60;52.30
13093;DHT22;6612;49.568;11.000;2023-05-07T05:30:58;20.70;51.60
13093;DHT22;6612;49.568;11.000;2023-05-07T05:33:25;20.70;51.60
13093;DHT22;6612;49.568;11.000;2023-05-07T05:35:53;20.80;51.40
13093;DHT22;6612;49.568;11.000;2023-05-07T05:38:20;20.80;51.10
13093;DHT22;6612;49.568;11.000;2023-05-07T05:40:48;20.80;50.90
13093;DHT22;6612;49.568;11.000;2023-05-07T05:43:15;20.80;50.70
13093;DHT22;6612;49.568;11.000;2023-05-07T05:45:42;20.80;50.70
13093;DHT22;6612;49.568;11.000;2023-05-07T05:48:09;20.80;50.60
13093;DHT22;6612;49.568;11.000;2023-05-07T05:50:36;20.70;50.50
13093;DHT22;6612;49.568;11.000;2023-05-07T05:53:04;20.70;50.30
13093;DHT22;6612;49.568;11.000;2023-05-07T05:55:31;20.70;50.30
13093;DHT22;6612;49.568;11.000;2023-05-07T05:58:00;20.70;50.40
13093;DHT22;6612;49.568;11.000;2023-05-07T06:00:27;20.70;50.30
13093;DHT22;6612;49.568;11.000;2023-05-07T06:02:54;20.70;50.40
13093;DHT22;6612;49.568;11.000;2023-05-07T06:05:22;20.70;50.60
13093;DHT22;6612;49.568;11.000;2023-05-07T06:07:49;20.70;50.70
13093;DHT22;6612;49.568;11.000;2023-05-07T06:10:16;20.70;50.70
13093;DHT22;6612;49.568;11.000;2023-05-07T06:12:43;20.70;50.70
13093;DHT22;6612;49.568;11.000;2023-05-07T06:15:11;20.80;50.70
13093;DHT22;6612;49.568;11.000;2023-05-07T06:17:38;20.80;50.50
13093;DHT22;6612;49.568;11.000;2023-05-07T06:20:07;20.90;50.40
13093;DHT22;6612;49.568;11.000;2023-05-07T06:22:34;20.90;50.30
13093;DHT22;6612;49.568;11.000;2023-05-07T06:25:01;20.90;50.30
13093;DHT22;6612;49.568;11.000;2023-05-07T06:27:28;20.90;50.10
13093;DHT22;6612;49.568;11.000;2023-05-07T06:29:55;20.90;50.10
13093;DHT22;6612;49.568;11.000;2023-05-07T06:32:23;21.00;50.10
13093;DHT22;6612;49.568;11.000;2023-05-07T06:34:50;21.00;50.10
13093;DHT22;6612;49.568;11.000;2023-05-07T06:37:17;21.00;50.10
13093;DHT22;6612;49.568;11.000;2023-05-07T06:39:44;21.00;50.00
13093;DHT22;6612;49.568;11.000;2023-05-07T06:42:11;21.00;50.00
13093;DHT22;6612;49.568;11.000;2023-05-07T06:44:38;21.00;50.00
13093;DHT22;6612;49.568;11.000;2023-05-07T06:47:05;21.00;49.80
13093;DHT22;6612;49.568;11.000;2023-05-07T06:49:34;21.00;49.80
13093;DHT22;6612;49.568;11.000;2023-05-07T06:52:01;21.00;49.80
13093;DHT22;6612;49.568;11.000;2023-05-07T06:54:28;21.00;50.00
13093;DHT22;6612;49.568;11.000;2023-05-07T06:56:55;21.00;50.10
13093;DHT22;6612;49.568;11.000;2023-05-07T06:59:23;21.00;50.10
13093;DHT22;6612;49.568;11.000;2023-05-07T07:01:50;21.10;50.30
13093;DHT22;6612;49.568;11.000;2023-05-07T07:04:17;21.20;50.40
13093;DHT22;6612;49.568;11.000;2023-05-07T07:06:45;21.30;50.70
13093;DHT22;6612;49.568;11.000;2023-05-07T07:09:12;21.50;50.50
13093;DHT22;6612;49.568;11.000;2023-05-07T07:11:39;21.60;50.40
13093;DHT22;6612;49.568;11.000;2023-05-07T07:14:06;21.70;50.30
13093;DHT22;6612;49.568;11.000;2023-05-07T07:16:34;21.90;50.30
13093;DHT22;6612;49.568;11.000;2023-05-07T07:19:01;22.00;50.50
13093;DHT22;6612;49.568;11.000;2023-05-07T07:21:28;22.20;50.60
13093;DHT22;6612;49.568;11.000;2023-05-07T07:23:56;22.30;50.20
13093;DHT22;6612;49.568;11.000;2023-05-07T07:26:23;22.40;49.60
13093;DHT22;6612;49.568;11.000;2023-05-07T07:28:50;22.60;49.70
13093;DHT22;6612;49.568;11.000;2023-05-07T07:31:17;22.70;49.50
13093;DHT22;6612;49.568;11.000;2023-05-07T07:33:44;22.70;49.00
13093;DHT22;6612;49.568;11.000;2023-05-07T07:36:11;22.80;48.90
13093;DHT22;6612;49.568;11.000;2023-05-07T07:38:38;22.90;48.90
13093;DHT22;6612;49.568;11.000;2023-05-07T07:41:08;22.90;48.60
13093;DHT22;6612;49.568;11.000;2023-05-07T07:43:35;23.00;48.60
13093;DHT22;6612;49.568;11.000;2023-05-07T07:46:02;23.00;48.40
13093;DHT22;6612;49.568;11.000;2023-05-07T07:48:30;23.10;48.50
13093;DHT22;6612;49.568;11.000;2023-05-07T07:50:57;23.10;48.40
13093;DHT22;6612;49.568;11.000;2023-05-07T07:53:24;23.10;48.10
13093;DHT22;6612;49.568;11.000;2023-05-07T07:55:51;23.20;48.10
13093;DHT22;6612;49.568;11.000;2023-05-07T07:58:19;23.20;48.00
13093;DHT22;6612;49.568;11.000;2023-05-07T08:00:47;23.20;47.90
13093;DHT22;6612;49.568;11.000;2023-05-07T08:03:14;23.20;47.90
13093;DHT22;6612;49.568;11.000;2023-05-07T08:05:42;23.20;47.90
13093;DHT22;6612;49.568;11.000;2023-05-07T08:08:09;23.20;47.90
13093;DHT22;6612;49.568;11.000;2023-05-07T08:10:36;23.30;48.00
13093;DHT22;6612;49.568;11.000;2023-05-07T08:13:04;23.30;48.00
13093;DHT22;6612;49.568;11.000;2023-05-07T08:15:33;23.40;47.90
13093;DHT22;6612;49.568;11.000;2023-05-07T08:18:02;23.50;47.80
13093;DHT22;6612;49.568;11.000;2023-05-07T08:20:30;23.50;48.00
13093;DHT22;6612;49.568;11.000;2023-05-07T08:22:57;23.60;47.90
13093;DHT22;6612;49.568;11.000;2023-05-07T08:25:24;23.70;47.80
13093;DHT22;6612;49.568;11.000;2023-05-07T08:27:51;23.70;47.80
13093;DHT22;6612;49.568;11.000;2023-05-07T08:30:18;23.80;47.80
13093;DHT22;6612;49.568;11.000;2023-05-07T08:32:46;23.90;47.80
13093;DHT22;6612;49.568;11.000;2023-05-07T08:35:13;24.00;47.50
13093;DHT22;6612;49.568;11.000;2023-05-07T08:37:40;24.10;47.60
13093;DHT22;6612;49.568;11.000;2023-05-07T08:40:08;24.20;47.50
13093;DHT22;6612;49.568;11.000;2023-05-07T08:42:35;24.30;47.40
13093;DHT22;6612;49.568;11.000;2023-05-07T08:45:04;24.40;47.60
13093;DHT22;6612;49.568;11.000;2023-05-07T08:47:41;24.50;47.50
13093;DHT22;6612;49.568;11.000;2023-05-07T08:50:10;24.60;46.80
13093;DHT22;6612;49.568;11.000;2023-05-07T08:52:39;24.70;46.90
13093;DHT22;6612;49.568;11.000;2023-05-07T08:55:07;24.80;46.70
13093;DHT22;6612;49.568;11.000;2023-05-07T08:57:34;24.90;46.50
13093;DHT22;6612;49.568;11.000;2023-05-07T09:00:02;25.00;46.20
13093;DHT22;6612;49.568;11.000;2023-05-07T09:02:29;25.00;46.10
13093;DHT22;6612;49.568;11.000;2023-05-07T09:04:56;25.00;46.10
13093;DHT22;6612;49.568;11.000;2023-05-07T09:07:25;25.10;46.10
13093;DHT22;6612;49.568;11.000;2023-05-07T09:09:52;25.10;46.10
13093;DHT22;6612;49.568;11.000;2023-05-07T09:12:21;25.20;46.30
13093;DHT22;6612;49.568;11.000;2023-05-07T09:14:48;25.30;46.30
13093;DHT22;6612;49.568;11.000;2023-05-07T09:17:15;25.50;46.40
13093;DHT22;6612;49.568;11.000;2023-05-07T09:19:44;25.60;46.00
13093;DHT22;6612;49.568;11.000;2023-05-07T09:22:12;25.70;45.40
13093;DHT22;6612;49.568;11.000;2023-05-07T09:24:40;25.80;45.00
13093;DHT22;6612;49.568;11.000;2023-05-07T09:27:08;25.80;44.50
13093;DHT22;6612;49.568;11.000;2023-05-07T09:29:38;25.80;44.00
13093;DHT22;6612;49.568;11.000;2023-05-07T09:32:06;25.80;44.00
13093;DHT22;6612;49.568;11.000;2023-05-07T09:34:34;25.80;44.10
13093;DHT22;6612;49.568;11.000;2023-05-07T09:37:02;25.80;44.20
13093;DHT22;6612;49.568;11.000;2023-05-07T09:39:40;25.80;44.60
13093;DHT22;6612;49.568;11.000;2023-05-07T09:42:07;26.00;44.30
13093;DHT22;6612;49.568;11.000;2023-05-07T09:44:34;26.10;44.90
13093;DHT22;6612;49.568;11.000;2023-05-07T09:47:05;26.30;43.50
13093;DHT22;6612;49.568;11.000;2023-05-07T09:49:34;26.40;42.80
13093;DHT22;6612;49.568;11.000;2023-05-07T09:52:03;26.50;42.90
13093;DHT22;6612;49.568;11.000;2023-05-07T09:54:32;26.50;42.50
13093;DHT22;6612;49.568;11.000;2023-05-07T09:57:02;26.50;42.00
13093;DHT22;6612;49.568;11.000;2023-05-07T09:59:31;26.50;41.00
13093;DHT22;6612;49.568;11.000;2023-05-07T10:02:01;26.40;41.50
13093;DHT22;6612;49.568;11.000;2023-05-07T10:04:31;26.30;41.80
13093;DHT22;6612;49.568;11.000;2023-05-07T10:06:58;26.30;42.00
13093;DHT22;6612;49.568;11.000;2023-05-07T10:09:26;26.30;42.20
13093;DHT22;6612;49.568;11.000;2023-05-07T10:11:54;26.30;42.00
13093;DHT22;6612;49.568;11.000;2023-05-07T10:14:23;26.30;42.20
13093;DHT22;6612;49.568;11.000;2023-05-07T10:16:51;26.30;42.30
13093;DHT22;6612;49.568;11.000;2023-05-07T10:19:19;26.40;43.00
13093;DHT22;6612;49.568;11.000;2023-05-07T10:21:52;26.50;43.20
13093;DHT22;6612;49.568;11.000;2023-05-07T10:24:25;26.60;42.50
13093;DHT22;6612;49.568;11.000;2023-05-07T10:26:53;26.70;42.20
13093;DHT22;6612;49.568;11.000;2023-05-07T10:29:33;26.80;42.50
13093;DHT22;6612;49.568;11.000;2023-05-07T10:32:19;26.90;41.70
13093;DHT22;6612;49.568;11.000;2023-05-07T10:34:53;27.00;41.30
13093;DHT22;6612;49.568;11.000;2023-05-07T10:37:21;27.10;41.60
13093;DHT22;6612;49.568;11.000;2023-05-07T10:39:49;27.10;41.70
13093;DHT22;6612;49.568;11.000;2023-05-07T10:42:16;27.20;41.10
13093;DHT22;6612;49.568;11.000;2023-05-07T10:44:45;27.20;40.80
13093;DHT22;6612;49.568;11.000;2023-05-07T10:47:13;27.20;41.00
13093;DHT22;6612;49.568;11.000;2023-05-07T10:52:44;27.20;39.90
13093;DHT22;6612;49.568;11.000;2023-05-07T10:55:21;27.20;40.80
13093;DHT22;6612;49.568;11.000;2023-05-07T10:57:50;27.20;40.40
13093;DHT22;6612;49.568;11.000;2023-05-07T11:00:43;27.30;40.80
13093;DHT22;6612;49.568;11.000;2023-05-07T11:03:10;27.30;39.90
13093;DHT22;6612;49.568;11.000;2023-05-07T11:05:38;27.30;40.70
13093;DHT22;6612;49.568;11.000;2023-05-07T11:08:05;27.30;40.50
13093;DHT22;6612;49.568;11.000;2023-05-07T11:10:51;27.20;40.10
13093;DHT22;6612;49.568;11.000;2023-05-07T11:13:44;27.20;38.40
13093;DHT22;6612;49.568;11.000;2023-05-07T11:16:18;27.20;39.20
13093;DHT22;6612;49.568;11.000;2023-05-07T11:18:49;27.10;39.30
13093;DHT22;6612;49.568;11.000;2023-05-07T11:21:32;27.10;39.40
13093;DHT22;6612;49.568;11.000;2023-05-07T11:24:01;27.00;39.40
13093;DHT22;6612;49.568;11.000;2023-05-07T11:26:29;27.00;40.00
13093;DHT22;6612;49.568;11.000;2023-05-07T11:28:58;27.10;40.20
13093;DHT22;6612;49.568;11.000;2023-05-07T11:31:27;27.10;40.30
13093;DHT22;6612;49.568;11.000;2023-05-07T11:33:55;27.20;40.30
13093;DHT22;6612;49.568;11.000;2023-05-07T11:36:24;27.20;40.10
13093;DHT22;6612;49.568;11.000;2023-05-07T11:38:51;27.20;40.00
13093;DHT22;6612;49.568;11.000;2023-05-07T11:41:18;27.20;39.80
13093;DHT22;6612;49.568;11.000;2023-05-07T11:44:00;27.30;39.90
13093;DHT22;6612;49.568;11.000;2023-05-07T11:46:28;27.20;39.10
13093;DHT22;6612;49.568;11.000;2023-05-07T11:48:55;27.20;39.10
13093;DHT22;6612;49.568;11.000;2023-05-07T11:51:24;27.10;39.30
13093;DHT22;6612;49.568;11.000;2023-05-07T11:53:52;27.10;39.30
13093;DHT22;6612;49.568;11.000;2023-05-07T11:56:19;27.00;39.30
13093;DHT22;6612;49.568;11.000;2023-05-07T11:58:47;27.00;39.20
13093;DHT22;6612;49.568;11.000;2023-05-07T12:01:16;26.90;39.30
13093;DHT22;6612;49.568;11.000;2023-05-07T12:03:45;26.90;39.40
13093;DHT22;6612;49.568;11.000;2023-05-07T12:06:14;26.90;39.50
13093;DHT22;6612;49.568;11.000;2023-05-07T12:08:42;26.90;39.20
13093;DHT22;6612;49.568;11.000;2023-05-07T12:11:12;26.80;39.40
13093;DHT22;6612;49.568;11.000;2023-05-07T12:13:40;26.80;39.60
13093;DHT22;6612;49.568;11.000;2023-05-07T12:16:07;26.90;39.40
13093;DHT22;6612;49.568;11.000;2023-05-07T12:18:37;26.90;39.50
13093;DHT22;6612;49.568;11.000;2023-05-07T12:21:05;26.90;39.50
13093;DHT22;6612;49.568;11.000;2023-05-07T12:23:34;26.90;39.30
13093;DHT22;6612;49.568;11.000;2023-05-07T12:26:01;26.80;38.70
13093;DHT22;6612;49.568;11.000;2023-05-07T12:28:29;26.80;38.90
13093;DHT22;6612;49.568;11.000;2023-05-07T12:30:57;26.80;39.10
13093;DHT22;6612;49.568;11.000;2023-05-07T12:33:25;26.80;39.10
13093;DHT22;6612;49.568;11.000;2023-05-07T12:35:55;26.80;39.50
13093;DHT22;6612;49.568;11.000;2023-05-07T12:38:22;26.80;38.60
13093;DHT22;6612;49.568;11.000;2023-05-07T12:40:53;26.80;38.60
13093;DHT22;6612;49.568;11.000;2023-05-07T12:43:21;26.80;38.90
13093;DHT22;6612;49.568;11.000;2023-05-07T12:45:51;26.80;38.60
13093;DHT22;6612;49.568;11.000;2023-05-07T12:48:19;26.80;38.80
13093;DHT22;6612;49.568;11.000;2023-05-07T12:50:49;26.90;39.50
13093;DHT22;6612;49.568;11.000;2023-05-07T12:53:20;26.90;38.40
13093;DHT22;6612;49.568;11.000;2023-05-07T12:55:49;26.90;38.50
13093;DHT22;6612;49.568;11.000;2023-05-07T12:58:17;27.00;38.50
13093;DHT22;6612;49.568;11.000;2023-05-07T13:00:45;27.00;38.00
13093;DHT22;6612;49.568;11.000;2023-05-07T13:03:21;27.00;38.10
13093;DHT22;6612;49.568;11.000;2023-05-07T13:05:48;27.00;37.70
13093;DHT22;6612;49.568;11.000;2023-05-07T13:08:25;27.00;38.40
13093;DHT22;6612;49.568;11.000;2023-05-07T13:10:52;27.00;37.80
13093;DHT22;6612;49.568;11.000;2023-05-07T13:13:20;26.90;38.00
13093;DHT22;6612;49.568;11.000;2023-05-07T13:15:46;26.90;37.90
13093;DHT22;6612;49.568;11.000;2023-05-07T13:18:14;26.90;38.50
13093;DHT22;6612;49.568;11.000;2023-05-07T13:20:41;26.80;37.80
13093;DHT22;6612;49.568;11.000;2023-05-07T13:23:08;26.80;38.00
13093;DHT22;6612;49.568;11.000;2023-05-07T13:25:36;26.70;38.00
13093;DHT22;6612;49.568;11.000;2023-05-07T13:28:04;26.60;37.90
13093;DHT22;6612;49.568;11.000;2023-05-07T13:30:31;26.60;38.00
13093;DHT22;6612;49.568;11.000;2023-05-07T13:32:58;26.50;38.00
13093;DHT22;6612;49.568;11.000;2023-05-07T13:35:25;26.50;38.00
13093;DHT22;6612;49.568;11.000;2023-05-07T13:37:52;26.40;38.00
13093;DHT22;6612;49.568;11.000;2023-05-07T13:40:20;26.40;38.20
13093;DHT22;6612;49.568;11.000;2023-05-07T13:42:49;26.40;38.30
13093;DHT22;6612;49.568;11.000;2023-05-07T13:45:17;26.30;37.70
13093;DHT22;6612;49.568;11.000;2023-05-07T13:47:44;26.30;38.20
13093;DHT22;6612;49.568;11.000;2023-05-07T13:50:12;26.30;38.50
13093;DHT22;6612;49.568;11.000;2023-05-07T13:52:41;26.30;38.30
13093;DHT22;6612;49.568;11.000;2023-05-07T13:55:09;26.30;38.40
13093;DHT22;6612;49.568;11.000;2023-05-07T13:57:36;26.30;38.50
13093;DHT22;6612;49.568;11.000;2023-05-07T14:00:06;26.40;38.40
13093;DHT22;6612;49.568;11.000;2023-05-07T14:02:34;26.40;38.50
13093;DHT22;6612;49.568;11.000;2023-05-07T14:05:01;26.40;38.40
13093;DHT22;6612;49.568;11.000;2023-05-07T14:07:27;26.40;38.30
13093;DHT22;6612;49.568;11.000;2023-05-07T14:09:55;26.40;38.40
13093;DHT22;6612;49.568;11.000;2023-05-07T14:12:22;26.40;38.20
13093;DHT22;6612;49.568;11.000;2023-05-07T14:14:49;26.40;38.10
13093;DHT22;6612;49.568;11.000;2023-05-07T14:17:18;26.40;38.00
13093;DHT22;6612;49.568;11.000;2023-05-07T14:19:45;26.40;38.00
13093;DHT22;6612;49.568;11.000;2023-05-07T14:22:13;26.50;38.10
13093;DHT22;6612;49.568;11.000;2023-05-07T14:24:41;26.50;38.20
13093;DHT22;6612;49.568;11.000;2023-05-07T14:27:08;26.50;37.90
13093;DHT22;6612;49.568;11.000;2023-05-07T14:29:35;26.50;37.80
13093;DHT22;6612;49.568;11.000;2023-05-07T14:32:02;26.50;37.60
13093;DHT22;6612;49.568;11.000;2023-05-07T14:34:31;26.50;37.30
13093;DHT22;6612;49.568;11.000;2023-05-07T14:36:59;26.50;36.90
13093;DHT22;6612;49.568;11.000;2023-05-07T14:39:27;26.50;36.50
13093;DHT22;6612;49.568;11.000;2023-05-07T14:41:54;26.50;37.10
13093;DHT22;6612;49.568;11.000;2023-05-07T14:44:21;26.50;37.40
13093;DHT22;6612;49.568;11.000;2023-05-07T14:46:48;26.50;37.60
13093;DHT22;6612;49.568;11.000;2023-05-07T14:49:15;26.60;37.80
13093;DHT22;6612;49.568;11.000;2023-05-07T14:51:45;26.60;37.50
13093;DHT22;6612;49.568;11.000;2023-05-07T14:54:13;26.70;37.40
13093;DHT22;6612;49.568;11.000;2023-05-07T14:56:41;26.70;37.50
13093;DHT22;6612;49.568;11.000;2023-05-07T14:59:08;26.70;37.20
13093;DHT22;6612;49.568;11.000;2023-05-07T15:01:36;26.80;37.10
13093;DHT22;6612;49.568;11.000;2023-05-07T15:04:03;26.80;36.90
13093;DHT22;6612;49.568;11.000;2023-05-07T15:06:30;26.90;36.90
13093;DHT22;6612;49.568;11.000;2023-05-07T15:08:59;26.90;36.80
13093;DHT22;6612;49.568;11.000;2023-05-07T15:11:26;26.90;36.50
13093;DHT22;6612;49.568;11.000;2023-05-07T15:13:53;26.90;36.80
13093;DHT22;6612;49.568;11.000;2023-05-07T15:16:20;26.90;36.60
13093;DHT22;6612;49.568;11.000;2023-05-07T15:18:47;26.90;36.50
13093;DHT22;6612;49.568;11.000;2023-05-07T15:21:14;26.90;36.60
13093;DHT22;6612;49.568;11.000;2023-05-07T15:23:41;26.90;36.60
13093;DHT22;6612;49.568;11.000;2023-05-07T15:26:11;26.90;36.40
13093;DHT22;6612;49.568;11.000;2023-05-07T15:28:38;26.90;36.40
13093;DHT22;6612;49.568;11.000;2023-05-07T15:31:05;26.90;36.20
13093;DHT22;6612;49.568;11.000;2023-05-07T15:33:32;26.90;36.10
13093;DHT22;6612;49.568;11.000;2023-05-07T15:35:59;26.90;35.90
13093;DHT22;6612;49.568;11.000;2023-05-07T15:38:28;26.90;35.70